createdAt,value
2018-04-10T00:01:49.876Z,9.27
2018-04-10T00:04:18.212Z,9.13
2018-04-10T00:06:48.503Z,9.73
2018-04-10T00:09:16.773Z,11.20
2018-04-10T00:11:45.255Z,10.77
2018-04-10T00:14:13.733Z,12.37
2018-04-10T00:16:42.104Z,11.53
2018-04-10T00:19:10.509Z,12.00
2018-04-10T00:21:38.833Z,10.67
2018-04-10T00:24:07.172Z,12.97
2018-04-10T00:26:35.524Z,12.77
2018-04-10T00:29:03.924Z,11.53
2018-04-10T00:31:32.297Z,11.83
2018-04-10T00:34:00.868Z,11.37
2018-04-10T00:36:29.233Z,10.30
2018-04-10T00:38:57.581Z,11.03
2018-04-10T00:41:26.139Z,11.50
2018-04-10T00:43:55.364Z,12.65
2018-04-10T00:46:24.002Z,13.43
2018-04-10T00:48:52.398Z,12.45
2018-04-10T00:51:21.588Z,12.03
2018-04-10T00:53:50.822Z,12.73
2018-04-10T00:56:19.154Z,12.80
2018-04-10T00:58:47.742Z,12.75
2018-04-10T01:01:16.401Z,12.67
2018-04-10T01:03:44.730Z,12.17
2018-04-10T01:06:13.929Z,13.80
2018-04-10T01:08:44.117Z,12.57
2018-04-10T01:11:12.393Z,13.63
2018-04-10T01:13:40.874Z,12.70
2018-04-10T01:16:09.932Z,14.00
2018-04-10T01:18:38.271Z,13.77
2018-04-10T01:21:07.442Z,13.40
2018-04-10T01:23:35.796Z,13.20
2018-04-10T01:26:04.138Z,14.30
2018-04-10T01:28:32.464Z,13.35
2018-04-10T01:31:01.021Z,14.20
2018-04-10T01:33:29.445Z,13.45
2018-04-10T01:35:57.909Z,13.40
2018-04-10T01:38:26.231Z,14.20
2018-04-10T01:40:54.712Z,14.63
2018-04-10T01:43:23.766Z,12.47
2018-04-10T01:45:52.269Z,13.60
2018-04-10T01:48:20.778Z,13.80
2018-04-10T01:50:49.215Z,13.07
2018-04-10T01:53:17.520Z,15.13
2018-04-10T01:55:46.688Z,15.30
2018-04-10T01:58:15.034Z,14.20
2018-04-10T02:00:43.353Z,16.33
2018-04-10T02:03:11.666Z,16.73
2018-04-10T02:05:40.144Z,16.20
2018-04-10T02:08:08.707Z,17.57
2018-04-10T02:10:38.984Z,16.52
2018-04-10T02:13:07.579Z,16.30
2018-04-10T02:15:35.866Z,15.43
2018-04-10T02:18:04.569Z,14.97
2018-04-10T02:20:33.861Z,15.63
2018-04-10T02:23:02.165Z,15.83
2018-04-10T02:25:31.285Z,14.75
2018-04-10T02:27:59.678Z,16.03
2018-04-10T02:30:28.089Z,17.90
2018-04-10T02:32:56.448Z,16.57
2018-04-10T02:35:24.903Z,14.23
2018-04-10T02:37:53.265Z,16.33
2018-04-10T02:40:21.765Z,14.70
2018-04-10T02:42:50.122Z,16.00
2018-04-10T02:45:18.593Z,15.60
2018-04-10T02:47:47.804Z,15.48
2018-04-10T02:50:16.093Z,17.83
2018-04-10T02:52:44.556Z,15.70
2018-04-10T02:55:12.886Z,13.53
2018-04-10T02:57:41.439Z,13.30
2018-04-10T03:00:09.850Z,13.30
2018-04-10T03:02:38.125Z,15.85
2018-04-10T03:05:06.483Z,13.60
2018-04-10T03:07:34.880Z,13.23
2018-04-10T03:10:03.326Z,15.38
2018-04-10T03:12:31.641Z,15.97
2018-04-10T03:15:01.499Z,13.60
2018-04-10T03:17:29.900Z,14.90
2018-04-10T03:19:58.565Z,20.90
2018-04-10T03:22:27.000Z,19.97
2018-04-10T03:24:55.309Z,15.38
2018-04-10T03:27:24.454Z,16.50
2018-04-10T03:29:52.901Z,15.73
2018-04-10T03:32:21.361Z,18.12
2018-04-10T03:34:50.665Z,21.13
2018-04-10T03:37:19.856Z,19.00
2018-04-10T03:39:49.074Z,19.67
2018-04-10T03:42:17.436Z,20.70
2018-04-10T03:44:46.649Z,19.62
2018-04-10T03:47:15.255Z,15.53
2018-04-10T03:49:43.555Z,15.77
2018-04-10T03:52:11.883Z,20.53
2018-04-10T03:54:40.964Z,18.07
2018-04-10T03:57:10.045Z,15.73
2018-04-10T03:59:38.324Z,14.75
2018-04-10T04:02:06.696Z,16.13
2018-04-10T04:04:35.000Z,15.67
2018-04-10T04:07:06.004Z,15.87
2018-04-10T04:09:34.279Z,15.68
2018-04-10T04:12:02.579Z,16.33
2018-04-10T04:14:31.805Z,16.67
2018-04-10T04:17:18.100Z,18.37
2018-04-10T04:20:04.295Z,20.37
2018-04-10T04:22:40.404Z,16.60
2018-04-10T04:25:08.796Z,17.67
2018-04-10T04:27:38.739Z,16.73
2018-04-10T04:30:08.175Z,24.17
2018-04-10T04:32:36.476Z,26.87
2018-04-10T04:35:04.825Z,23.17
2018-04-10T04:37:33.255Z,19.97
2018-04-10T04:40:01.578Z,18.00
2018-04-10T04:42:30.455Z,19.43
2018-04-10T04:44:58.784Z,17.37
2018-04-10T04:47:27.358Z,17.23
2018-04-10T04:49:55.811Z,19.00
2018-04-10T04:52:24.556Z,16.13
2018-04-10T04:54:53.784Z,18.83
2018-04-10T04:57:22.198Z,19.30
2018-04-10T04:59:50.780Z,16.13
2018-04-10T05:02:19.356Z,20.67
2018-04-10T05:04:48.140Z,17.40
2018-04-10T05:07:16.495Z,16.35
2018-04-10T05:09:44.884Z,15.77
2018-04-10T05:12:13.234Z,17.83
2018-04-10T05:14:42.323Z,19.47
2018-04-10T05:17:11.442Z,19.23
2018-04-10T05:19:39.796Z,17.50
2018-04-10T05:22:09.130Z,19.40
2018-04-10T05:24:37.500Z,20.70
2018-04-10T05:27:05.980Z,16.30
2018-04-10T05:29:34.561Z,16.67
2018-04-10T05:32:03.028Z,19.60
2018-04-10T05:34:32.040Z,19.02
2018-04-10T05:37:00.434Z,17.40
2018-04-10T05:39:28.759Z,17.87
2018-04-10T05:41:57.060Z,18.20
2018-04-10T05:44:25.369Z,15.83
2018-04-10T05:46:53.671Z,15.90
2018-04-10T05:49:22.116Z,19.53
2018-04-10T05:51:50.469Z,20.43
2018-04-10T05:54:19.156Z,22.05
2018-04-10T05:56:47.595Z,19.77
2018-04-10T05:59:15.873Z,17.03
2018-04-10T06:01:44.279Z,19.43
2018-04-10T06:04:14.799Z,18.93
2018-04-10T06:06:43.312Z,20.20
2018-04-10T06:09:11.735Z,19.43
2018-04-10T06:11:40.050Z,21.20
2018-04-10T06:14:09.110Z,19.87
2018-04-10T06:16:37.511Z,20.57
2018-04-10T06:19:06.576Z,21.65
2018-04-10T06:21:34.968Z,18.37
2018-04-10T06:24:03.419Z,20.27
2018-04-10T06:26:31.730Z,22.58
2018-04-10T06:29:00.955Z,20.93
2018-04-10T06:31:29.519Z,20.30
2018-04-10T06:33:57.905Z,21.60
2018-04-10T06:36:27.031Z,21.57
2018-04-10T06:38:55.477Z,21.07
2018-04-10T06:41:24.727Z,19.07
2018-04-10T06:43:53.075Z,20.77
2018-04-10T06:46:21.372Z,19.60
2018-04-10T06:48:49.833Z,19.60
2018-04-10T06:51:18.392Z,18.10
2018-04-10T06:53:47.641Z,21.30
2018-04-10T06:56:16.130Z,17.77
2018-04-10T06:58:44.777Z,18.05
2018-04-10T07:01:13.156Z,19.23
2018-04-10T07:03:41.763Z,18.12
2018-04-10T07:06:10.710Z,17.07
2018-04-10T07:08:39.051Z,16.93
2018-04-10T07:11:07.528Z,15.80
2018-04-10T07:13:35.834Z,16.23
2018-04-10T07:16:05.009Z,15.23
2018-04-10T07:18:33.671Z,16.63
2018-04-10T07:21:02.150Z,15.13
2018-04-10T07:23:30.480Z,13.93
2018-04-10T07:25:58.829Z,14.55
2018-04-10T07:28:27.416Z,14.18
2018-04-10T07:30:55.838Z,15.15
2018-04-10T07:33:24.905Z,15.20
2018-04-10T07:35:53.455Z,14.60
2018-04-10T07:38:23.939Z,13.47
2018-04-10T07:40:53.117Z,14.60
2018-04-10T07:43:21.655Z,13.87
2018-04-10T07:45:50.034Z,14.07
2018-04-10T07:48:18.519Z,13.23
2018-04-10T07:50:46.994Z,12.47
2018-04-10T07:53:15.328Z,13.37
2018-04-10T07:55:44.576Z,11.70
2018-04-10T07:58:13.007Z,11.68
2018-04-10T08:00:42.193Z,11.63
2018-04-10T08:03:10.575Z,11.35
2018-04-10T08:05:39.075Z,12.55
2018-04-10T08:08:08.121Z,12.50
2018-04-10T08:10:37.552Z,11.15
2018-04-10T08:13:07.008Z,11.33
2018-04-10T08:15:35.322Z,12.93
2018-04-10T08:18:03.727Z,12.77
2018-04-10T08:20:32.908Z,13.33
2018-04-10T08:23:01.198Z,11.57
2018-04-10T08:25:30.457Z,11.80
2018-04-10T08:27:58.730Z,11.05
2018-04-10T08:30:27.055Z,12.20
2018-04-10T08:32:56.231Z,10.40
2018-04-10T08:35:26.100Z,10.43
2018-04-10T08:40:28.963Z,10.60
2018-04-10T08:42:58.305Z,9.37
2018-04-10T08:45:26.653Z,10.10
2018-04-10T08:47:55.198Z,9.30
2018-04-10T08:50:23.576Z,8.87
2018-04-10T08:52:51.914Z,8.43
2018-04-10T08:55:20.211Z,9.27
2018-04-10T08:57:48.691Z,8.47
2018-04-10T09:00:17.040Z,7.57
2018-04-10T09:02:45.742Z,7.57
2018-04-10T09:05:14.193Z,6.43
2018-04-10T09:07:43.233Z,6.97
2018-04-10T09:10:11.560Z,6.93
2018-04-10T09:12:40.761Z,7.28
2018-04-10T09:15:09.878Z,7.27
2018-04-10T09:17:38.333Z,7.03
2018-04-10T09:20:08.349Z,8.10
2018-04-10T09:22:43.955Z,7.10
2018-04-10T09:25:12.278Z,7.83
2018-04-10T09:27:41.810Z,5.77
2018-04-10T09:30:10.185Z,6.57
2018-04-10T09:32:38.659Z,5.90
2018-04-10T09:35:06.982Z,4.67
2018-04-10T09:37:35.654Z,4.80
2018-04-10T09:40:04.295Z,4.47
2018-04-10T09:42:32.777Z,4.10
2018-04-10T09:45:01.083Z,4.50
2018-04-10T09:47:29.641Z,4.67
2018-04-10T09:49:57.977Z,3.80
2018-04-10T09:52:26.467Z,4.43
2018-04-10T09:54:54.977Z,3.93
2018-04-10T09:57:23.273Z,4.40
2018-04-10T09:59:51.568Z,4.20
2018-04-10T10:02:20.115Z,5.30
2018-04-10T10:04:48.619Z,4.70
2018-04-10T10:07:17.015Z,5.63
2018-04-10T10:09:45.583Z,4.93
2018-04-10T10:12:14.090Z,4.37
2018-04-10T10:14:42.432Z,4.55
2018-04-10T10:17:10.817Z,4.50
2018-04-10T10:19:39.367Z,4.47
2018-04-10T10:22:08.613Z,4.70
2018-04-10T10:24:37.017Z,4.50
2018-04-10T10:27:05.333Z,4.60
2018-04-10T10:29:33.948Z,5.50
2018-04-10T10:32:02.262Z,5.13
2018-04-10T10:34:30.823Z,3.90
2018-04-10T10:36:59.135Z,4.43
2018-04-10T10:39:28.364Z,4.90
2018-04-10T10:41:56.903Z,3.90
2018-04-10T10:44:25.320Z,6.07
2018-04-10T10:46:53.633Z,4.27
2018-04-10T10:49:22.033Z,4.70
2018-04-10T10:51:51.967Z,4.30
2018-04-10T10:54:21.084Z,4.63
2018-04-10T10:56:49.604Z,4.17
2018-04-10T10:59:18.392Z,3.22
2018-04-10T11:01:47.780Z,4.83
2018-04-10T11:04:16.176Z,5.50
2018-04-10T11:06:44.480Z,4.40
2018-04-10T11:09:13.728Z,5.10
2018-04-10T11:11:42.042Z,4.70
2018-04-10T11:14:10.369Z,4.60
2018-04-10T11:16:38.808Z,5.03
2018-04-10T11:19:07.297Z,5.73
2018-04-10T11:21:35.652Z,5.13
2018-04-10T11:24:04.098Z,4.67
2018-04-10T11:26:32.402Z,4.43
2018-04-10T11:29:00.667Z,4.83
2018-04-10T11:31:29.373Z,3.93
2018-04-10T11:33:57.872Z,4.00
2018-04-10T11:36:26.265Z,4.20
2018-04-10T11:38:55.481Z,3.67
2018-04-10T11:41:23.805Z,3.33
2018-04-10T11:43:52.444Z,3.90
2018-04-10T11:46:21.090Z,4.50
2018-04-10T11:48:49.744Z,4.00
2018-04-10T11:51:18.168Z,4.50
2018-04-10T11:53:47.366Z,4.65
2018-04-10T11:56:15.776Z,4.03
2018-04-10T11:58:44.359Z,4.57
2018-04-10T12:01:13.569Z,4.37
2018-04-10T12:03:41.875Z,4.43
2018-04-10T12:06:10.178Z,5.40
2018-04-10T12:08:39.388Z,5.13
2018-04-10T12:11:08.463Z,4.00
2018-04-10T12:13:36.802Z,4.22
2018-04-10T12:16:05.094Z,2.60
2018-04-10T12:18:33.418Z,2.45
2018-04-10T12:21:02.025Z,2.83
2018-04-10T12:23:30.547Z,3.37
2018-04-10T12:25:58.920Z,3.30
2018-04-10T12:28:27.232Z,3.13
2018-04-10T12:30:55.960Z,2.87
2018-04-10T12:33:24.436Z,3.00
2018-04-10T12:35:53.727Z,3.40
2018-04-10T12:38:22.054Z,3.60
2018-04-10T12:40:50.403Z,2.93
2018-04-10T12:43:18.719Z,2.70
2018-04-10T12:45:47.854Z,2.80
2018-04-10T12:48:16.161Z,2.77
2018-04-10T12:50:44.527Z,2.10
2018-04-10T12:53:14.354Z,2.50
2018-04-10T12:55:42.803Z,3.62
2018-04-10T12:58:11.202Z,3.13
2018-04-10T13:00:39.673Z,3.70
2018-04-10T13:03:08.029Z,3.53
2018-04-10T13:05:36.522Z,3.97
2018-04-10T13:08:04.914Z,4.70
2018-04-10T13:10:33.248Z,3.77
2018-04-10T13:13:02.444Z,3.27
2018-04-10T13:15:31.617Z,3.03
2018-04-10T13:17:59.967Z,2.90
2018-04-10T13:20:28.521Z,2.62
2018-04-10T13:22:56.964Z,2.80
2018-04-10T13:25:26.108Z,2.75
2018-04-10T13:27:54.641Z,3.33
2018-04-10T13:30:23.142Z,4.73
2018-04-10T13:32:52.383Z,4.00
2018-04-10T13:35:21.031Z,3.80
2018-04-10T13:37:50.249Z,3.83
2018-04-10T13:40:18.883Z,3.00
2018-04-10T13:42:47.189Z,2.40
2018-04-10T13:45:16.397Z,4.10
2018-04-10T13:47:44.772Z,3.53
2018-04-10T13:50:13.963Z,4.60
2018-04-10T13:52:43.126Z,5.10
2018-04-10T13:55:11.535Z,6.20
2018-04-10T13:57:40.722Z,7.23
2018-04-10T14:00:09.828Z,8.30
2018-04-10T14:02:39.044Z,8.23
2018-04-10T14:05:07.613Z,8.90
2018-04-10T14:07:36.702Z,10.20
2018-04-10T14:10:05.780Z,10.97
2018-04-10T14:12:35.699Z,10.03
2018-04-10T14:15:05.047Z,11.43
2018-04-10T14:17:33.629Z,9.70
2018-04-10T14:20:02.095Z,11.13
2018-04-10T14:22:30.408Z,10.88
2018-04-10T14:24:58.820Z,10.23
2018-04-10T14:27:28.377Z,10.30
2018-04-10T14:29:56.687Z,11.20
2018-04-10T14:32:25.103Z,8.85
2018-04-10T14:34:54.250Z,11.30
2018-04-10T14:37:22.783Z,12.00
2018-04-10T14:39:52.591Z,10.95
2018-04-10T14:42:22.991Z,11.13
2018-04-10T14:44:51.603Z,11.30
2018-04-10T14:47:20.020Z,10.23
2018-04-10T14:49:48.608Z,13.90
2018-04-10T14:52:17.131Z,16.37
2018-04-10T14:54:46.075Z,14.48
2018-04-10T14:57:14.448Z,13.85
2018-04-10T14:59:43.103Z,17.95
2018-04-10T15:02:11.707Z,18.95
2018-04-10T15:04:40.208Z,19.33
2018-04-10T15:07:08.926Z,17.80
2018-04-10T15:09:37.356Z,19.00
2018-04-10T15:12:06.136Z,22.50
2018-04-10T15:14:36.579Z,22.37
2018-04-10T15:17:04.999Z,22.70
2018-04-10T15:19:33.365Z,22.60
2018-04-10T15:22:01.755Z,24.10
2018-04-10T15:24:30.878Z,20.23
2018-04-10T15:27:00.060Z,22.83
2018-04-10T15:29:28.574Z,21.10
2018-04-10T15:31:57.074Z,22.87
2018-04-10T15:34:25.553Z,21.12
2018-04-10T15:36:53.865Z,22.93
2018-04-10T15:39:22.227Z,24.47
2018-04-10T15:41:51.074Z,25.77
2018-04-10T15:44:19.440Z,25.23
2018-04-10T15:46:49.484Z,22.57
2018-04-10T15:49:18.001Z,26.90
2018-04-10T15:51:46.367Z,25.57
2018-04-10T15:54:14.808Z,24.70
2018-04-10T15:56:43.507Z,23.10
2018-04-10T15:59:11.957Z,25.93
2018-04-10T16:01:41.228Z,24.80
2018-04-10T16:04:10.385Z,25.73
2018-04-10T16:06:38.759Z,26.42
2018-04-10T16:09:07.265Z,25.20
2018-04-10T16:11:35.845Z,24.58
2018-04-10T16:14:04.230Z,25.57
2018-04-10T16:16:32.567Z,27.87
2018-04-10T16:19:02.818Z,28.83
2018-04-10T16:21:31.165Z,25.17
2018-04-10T16:24:00.272Z,25.00
2018-04-10T16:26:28.615Z,27.33
2018-04-10T16:28:57.430Z,34.17
2018-04-10T16:31:26.606Z,32.40
2018-04-10T16:33:54.975Z,34.35
2018-04-10T16:36:23.502Z,32.53
2018-04-10T16:38:51.838Z,31.42
2018-04-10T16:41:20.187Z,34.03
2018-04-10T16:43:48.556Z,31.87
2018-04-10T16:46:16.931Z,32.00
2018-04-10T16:48:45.459Z,31.50
2018-04-10T16:51:13.805Z,33.70
2018-04-10T16:53:42.264Z,36.27
2018-04-10T16:56:10.642Z,33.53
2018-04-10T16:58:39.068Z,33.87
2018-04-10T17:01:07.562Z,33.53
2018-04-10T17:03:36.674Z,36.50
2018-04-10T17:06:06.994Z,33.72
2018-04-10T17:08:36.150Z,30.20
2018-04-10T17:11:04.485Z,39.55
2018-04-10T17:13:32.893Z,39.22
2018-04-10T17:16:01.255Z,33.30
2018-04-10T17:18:29.885Z,37.70
2018-04-10T17:20:58.303Z,38.83
2018-04-10T17:23:26.640Z,33.97
2018-04-10T17:25:55.054Z,34.93
2018-04-10T17:28:23.422Z,36.10
2018-04-10T17:30:52.608Z,29.17
2018-04-10T17:33:21.049Z,34.63
2018-04-10T17:35:49.459Z,33.47
2018-04-10T17:38:18.697Z,34.17
2018-04-10T17:40:47.150Z,32.47
2018-04-10T17:43:16.397Z,29.63
2018-04-10T17:45:44.758Z,36.20
2018-04-10T17:48:13.149Z,32.40
2018-04-10T17:50:41.527Z,33.17
2018-04-10T17:53:11.533Z,35.28
2018-04-10T17:55:39.939Z,31.93
2018-04-10T17:58:08.371Z,32.47
2018-04-10T18:00:37.495Z,35.20
2018-04-10T18:03:05.894Z,29.60
2018-04-10T18:05:34.355Z,32.17
2018-04-10T18:08:02.941Z,31.07
2018-04-10T18:10:31.385Z,40.83
2018-04-10T18:13:00.222Z,32.37
2018-04-10T18:15:28.779Z,31.37
2018-04-10T18:17:57.230Z,35.67
2018-04-10T18:20:26.440Z,31.77
2018-04-10T18:22:55.576Z,35.80
2018-04-10T18:25:24.091Z,33.87
2018-04-10T18:27:52.640Z,35.40
2018-04-10T18:30:21.611Z,32.35
2018-04-10T18:32:50.055Z,35.40
2018-04-10T18:35:18.614Z,40.07
2018-04-10T18:37:47.701Z,44.43
2018-04-10T18:40:16.899Z,35.50
2018-04-10T18:42:45.295Z,33.40
2018-04-10T18:45:13.863Z,33.13
2018-04-10T18:47:42.237Z,32.60
2018-04-10T18:50:10.728Z,35.27
2018-04-10T18:52:39.038Z,38.93
2018-04-10T18:55:07.633Z,33.73
2018-04-10T18:57:40.039Z,36.93
2018-04-10T19:00:08.789Z,34.83
2018-04-10T19:02:38.610Z,32.85
2018-04-10T19:05:08.163Z,31.98
2018-04-10T19:07:36.524Z,32.60
2018-04-10T19:10:04.947Z,31.17
2018-04-10T19:12:34.894Z,37.17
2018-04-10T19:15:03.609Z,36.97
2018-04-10T19:17:32.125Z,37.28
2018-04-10T19:20:01.496Z,35.47
2018-04-10T19:22:29.990Z,36.83
2018-04-10T19:24:58.339Z,33.70
2018-04-10T19:27:27.247Z,34.97
2018-04-10T19:29:55.610Z,37.63
2018-04-10T19:32:24.050Z,12.15
2018-04-10T19:34:52.454Z,9.07
2018-04-10T19:37:20.928Z,7.45
2018-04-10T19:39:49.344Z,6.80
2018-04-10T19:42:17.629Z,7.93
2018-04-10T19:44:46.202Z,7.70
2018-04-10T19:47:14.531Z,8.10
2018-04-10T19:49:43.716Z,8.05
2018-04-10T19:52:12.048Z,8.70
2018-04-10T19:54:40.443Z,9.13
2018-04-10T19:57:08.877Z,8.90
2018-04-10T19:59:38.308Z,9.43
2018-04-10T20:02:06.782Z,10.40
2018-04-10T20:04:35.194Z,10.27
2018-04-10T20:07:03.828Z,9.48
2018-04-10T20:09:32.401Z,10.90
2018-04-10T20:12:01.653Z,11.50
2018-04-10T20:14:29.964Z,11.87
2018-04-10T20:16:58.495Z,11.77
2018-04-10T20:19:26.897Z,12.73
2018-04-10T20:21:55.398Z,11.47
2018-04-10T20:24:23.904Z,13.40
2018-04-10T20:26:53.054Z,12.33
2018-04-10T20:29:21.373Z,12.43
2018-04-10T20:31:50.538Z,14.27
2018-04-10T20:34:19.707Z,12.73
2018-04-10T20:36:48.020Z,13.85
2018-04-10T20:39:16.484Z,13.87
2018-04-10T20:41:44.925Z,14.57
2018-04-10T20:44:13.541Z,14.48
2018-04-10T20:46:41.968Z,15.80
2018-04-10T20:49:11.134Z,15.60
2018-04-10T20:51:39.494Z,16.30
2018-04-10T20:54:07.955Z,16.77
2018-04-10T20:56:36.318Z,16.83
2018-04-10T20:59:04.713Z,18.77
2018-04-10T21:01:34.089Z,18.62
2018-04-10T21:04:03.375Z,20.02
2018-04-10T21:06:31.807Z,18.87
2018-04-10T21:09:00.209Z,20.88
2018-04-10T21:11:28.564Z,20.00
2018-04-10T21:13:56.890Z,19.83
2018-04-10T21:16:26.244Z,21.08
2018-04-10T21:18:54.720Z,20.07
2018-04-10T21:21:23.219Z,21.00
2018-04-10T21:23:53.402Z,19.45
2018-04-10T21:26:21.756Z,19.17
2018-04-10T21:28:50.995Z,19.40
2018-04-10T21:31:19.350Z,20.45
2018-04-10T21:33:47.796Z,18.83
2018-04-10T21:36:16.382Z,19.13
2018-04-10T21:38:44.752Z,19.03
2018-04-10T21:41:13.082Z,20.20
2018-04-10T21:43:41.421Z,21.03
2018-04-10T21:46:09.846Z,21.63
2018-04-10T21:48:38.250Z,20.98
2018-04-10T21:51:06.819Z,22.17
2018-04-10T21:53:35.284Z,20.63
2018-04-10T21:56:03.799Z,22.27
2018-04-10T21:58:32.194Z,20.20
2018-04-10T22:01:00.720Z,23.40
2018-04-10T22:03:29.152Z,23.37
2018-04-10T22:05:57.532Z,29.10
2018-04-10T22:08:26.776Z,26.57
2018-04-10T22:10:55.094Z,29.93
2018-04-10T22:13:23.439Z,32.72
2018-04-10T22:15:51.972Z,33.63
2018-04-10T22:18:20.450Z,33.47
2018-04-10T22:20:48.796Z,33.27
2018-04-10T22:23:17.075Z,34.73
2018-04-10T22:25:45.485Z,31.23
2018-04-10T22:28:13.860Z,31.23
2018-04-10T22:30:42.340Z,33.03
2018-04-10T22:33:10.771Z,32.07
2018-04-10T22:35:39.216Z,31.80
2018-04-10T22:38:07.618Z,35.37
2018-04-10T22:40:35.975Z,38.33
2018-04-10T22:43:04.444Z,39.60
2018-04-10T22:45:33.561Z,36.83
2018-04-10T22:48:01.890Z,40.15
2018-04-10T22:50:30.475Z,38.03
2018-04-10T22:52:58.785Z,38.27
2018-04-10T22:55:27.216Z,37.90
2018-04-10T22:57:55.537Z,42.20
2018-04-10T23:03:29.926Z,29.30
2018-04-10T23:05:58.221Z,28.70
2018-04-10T23:08:26.533Z,27.90
2018-04-10T23:10:55.636Z,27.30
2018-04-10T23:13:24.714Z,24.67
2018-04-10T23:15:56.233Z,21.85
2018-04-10T23:18:24.775Z,25.00
2018-04-10T23:20:54.009Z,25.02
2018-04-10T23:23:22.631Z,22.53
2018-04-10T23:25:50.952Z,25.52
2018-04-10T23:28:19.409Z,21.98
2018-04-10T23:30:48.656Z,21.07
2018-04-10T23:33:16.942Z,21.20
2018-04-10T23:35:46.363Z,19.00
2018-04-10T23:38:15.021Z,19.03
2018-04-10T23:40:43.479Z,19.10
2018-04-10T23:43:11.753Z,19.30
2018-04-10T23:45:40.062Z,19.67
2018-04-10T23:48:08.522Z,19.60
2018-04-10T23:50:36.865Z,19.60
2018-04-10T23:53:05.450Z,18.67
2018-04-10T23:55:33.751Z,18.77
2018-04-10T23:58:02.879Z,19.42
